sensor_id;sensor_type;location;lat;lon;timestamp;temperature;humidity
47368;DHT22;34646;47.964;7.982;2022-08-27T00:04:54;24.90;61.20
47368;DHT22;34646;47.964;7.982;2022-08-27T00:10:54;24.90;61.20
47368;DHT22;34646;47.964;7.982;2022-08-27T00:16:55;24.90;61.20
47368;DHT22;34646;47.964;7.982;2022-08-27T00:22:56;24.90;61.20
47368;DHT22;34646;47.964;7.982;2022-08-27T00:28:57;24.90;61.30
47368;DHT22;34646;47.964;7.982;2022-08-27T00:34:57;24.90;61.20
47368;DHT22;34646;47.964;7.982;2022-08-27T00:40:58;24.90;61.30
47368;DHT22;34646;47.964;7.982;2022-08-27T00:47:04;24.90;61.30
47368;DHT22;34646;47.964;7.982;2022-08-27T00:53:19;24.90;61.30
47368;DHT22;34646;47.964;7.982;2022-08-27T00:59:25;24.90;61.30
47368;DHT22;34646;47.964;7.982;2022-08-27T01:05:28;24.90;61.30
47368;DHT22;34646;47.964;7.982;2022-08-27T01:11:29;24.90;61.30
47368;DHT22;34646;47.964;7.982;2022-08-27T01:17:31;24.90;61.30
47368;DHT22;34646;47.964;7.982;2022-08-27T01:29:51;24.90;61.40
47368;DHT22;34646;47.964;7.982;2022-08-27T01:35:52;24.80;61.40
47368;DHT22;34646;47.964;7.982;2022-08-27T01:41:52;24.80;61.40
47368;DHT22;34646;47.964;7.982;2022-08-27T01:47:54;24.80;61.40
47368;DHT22;34646;47.964;7.982;2022-08-27T01:53:54;24.80;61.40
47368;DHT22;34646;47.964;7.982;2022-08-27T01:59:55;24.80;61.40
47368;DHT22;34646;47.964;7.982;2022-08-27T02:05:57;24.80;61.40
47368;DHT22;34646;47.964;7.982;2022-08-27T02:11:58;24.80;61.50
47368;DHT22;34646;47.964;7.982;2022-08-27T02:18:00;24.80;61.50
47368;DHT22;34646;47.964;7.982;2022-08-27T02:24:02;24.80;61.50
47368;DHT22;34646;47.964;7.982;2022-08-27T02:30:03;24.80;61.50
47368;DHT22;34646;47.964;7.982;2022-08-27T02:36:04;24.80;61.50
47368;DHT22;34646;47.964;7.982;2022-08-27T02:42:05;24.80;61.60
47368;DHT22;34646;47.964;7.982;2022-08-27T02:48:06;24.80;61.60
47368;DHT22;34646;47.964;7.982;2022-08-27T02:54:07;24.70;61.50
47368;DHT22;34646;47.964;7.982;2022-08-27T03:00:11;24.70;61.50
47368;DHT22;34646;47.964;7.982;2022-08-27T03:06:12;24.70;61.60
47368;DHT22;34646;47.964;7.982;2022-08-27T03:12:12;24.70;61.60
47368;DHT22;34646;47.964;7.982;2022-08-27T03:18:13;24.70;61.60
47368;DHT22;34646;47.964;7.982;2022-08-27T03:24:21;24.70;61.60
47368;DHT22;34646;47.964;7.982;2022-08-27T03:30:22;24.70;61.60
47368;DHT22;34646;47.964;7.982;2022-08-27T03:36:25;24.70;61.60
47368;DHT22;34646;47.964;7.982;2022-08-27T03:42:26;24.70;61.60
47368;DHT22;34646;47.964;7.982;2022-08-27T03:48:27;24.70;61.60
47368;DHT22;34646;47.964;7.982;2022-08-27T03:54:28;24.70;61.60
47368;DHT22;34646;47.964;7.982;2022-08-27T04:00:30;24.70;61.60
47368;DHT22;34646;47.964;7.982;2022-08-27T04:06:33;24.70;61.70
47368;DHT22;34646;47.964;7.982;2022-08-27T04:12:35;24.70;61.70
47368;DHT22;34646;47.964;7.982;2022-08-27T04:18:36;24.70;61.70
47368;DHT22;34646;47.964;7.982;2022-08-27T04:24:38;24.70;61.70
47368;DHT22;34646;47.964;7.982;2022-08-27T04:30:41;24.70;61.80
47368;DHT22;34646;47.964;7.982;2022-08-27T04:36:44;24.60;61.70
47368;DHT22;34646;47.964;7.982;2022-08-27T04:42:45;24.70;61.70
47368;DHT22;34646;47.964;7.982;2022-08-27T04:48:46;24.60;61.80
47368;DHT22;34646;47.964;7.982;2022-08-27T04:54:46;24.60;61.80
47368;DHT22;34646;47.964;7.982;2022-08-27T05:00:49;24.60;61.70
47368;DHT22;34646;47.964;7.982;2022-08-27T05:06:50;24.60;61.80
47368;DHT22;34646;47.964;7.982;2022-08-27T05:12:51;24.60;61.80
47368;DHT22;34646;47.964;7.982;2022-08-27T05:18:52;24.60;61.80
47368;DHT22;34646;47.964;7.982;2022-08-27T05:24:53;24.60;61.80
47368;DHT22;34646;47.964;7.982;2022-08-27T05:31:05;24.60;61.80
47368;DHT22;34646;47.964;7.982;2022-08-27T05:37:05;24.60;61.80
47368;DHT22;34646;47.964;7.982;2022-08-27T05:43:06;24.60;61.90
47368;DHT22;34646;47.964;7.982;2022-08-27T05:49:07;24.60;62.50
47368;DHT22;34646;47.964;7.982;2022-08-27T05:55:08;24.60;61.90
47368;DHT22;34646;47.964;7.982;2022-08-27T06:01:09;24.60;61.90
47368;DHT22;34646;47.964;7.982;2022-08-27T06:07:10;24.60;61.90
47368;DHT22;34646;47.964;7.982;2022-08-27T06:13:11;24.50;62.00
47368;DHT22;34646;47.964;7.982;2022-08-27T06:19:11;24.50;62.10
47368;DHT22;34646;47.964;7.982;2022-08-27T06:25:12;24.50;62.10
47368;DHT22;34646;47.964;7.982;2022-08-27T06:31:16;24.50;62.10
47368;DHT22;34646;47.964;7.982;2022-08-27T06:37:18;24.50;62.10
47368;DHT22;34646;47.964;7.982;2022-08-27T06:43:18;24.50;62.00
47368;DHT22;34646;47.964;7.982;2022-08-27T06:49:19;24.50;62.00
47368;DHT22;34646;47.964;7.982;2022-08-27T06:55:20;24.50;62.00
47368;DHT22;34646;47.964;7.982;2022-08-27T07:01:31;24.50;62.00
47368;DHT22;34646;47.964;7.982;2022-08-27T07:07:33;24.50;61.90
47368;DHT22;34646;47.964;7.982;2022-08-27T07:13:34;24.50;61.90
47368;DHT22;34646;47.964;7.982;2022-08-27T07:19:35;24.50;61.90
47368;DHT22;34646;47.964;7.982;2022-08-27T07:25:40;24.50;61.90
47368;DHT22;34646;47.964;7.982;2022-08-27T07:31:41;24.50;61.90
47368;DHT22;34646;47.964;7.982;2022-08-27T07:37:43;24.50;61.80
47368;DHT22;34646;47.964;7.982;2022-08-27T07:43:43;24.40;61.70
47368;DHT22;34646;47.964;7.982;2022-08-27T07:50:03;24.50;61.70
47368;DHT22;34646;47.964;7.982;2022-08-27T07:56:05;24.50;62.30
47368;DHT22;34646;47.964;7.982;2022-08-27T08:02:06;24.50;61.70
47368;DHT22;34646;47.964;7.982;2022-08-27T08:08:07;24.50;61.70
47368;DHT22;34646;47.964;7.982;2022-08-27T08:14:08;24.50;61.80
47368;DHT22;34646;47.964;7.982;2022-08-27T08:20:10;24.50;61.90
47368;DHT22;34646;47.964;7.982;2022-08-27T08:26:11;24.50;62.00
47368;DHT22;34646;47.964;7.982;2022-08-27T08:32:13;24.50;62.40
47368;DHT22;34646;47.964;7.982;2022-08-27T08:38:14;24.50;62.60
47368;DHT22;34646;47.964;7.982;2022-08-27T08:44:18;24.50;63.00
47368;DHT22;34646;47.964;7.982;2022-08-27T08:50:29;24.50;63.50
47368;DHT22;34646;47.964;7.982;2022-08-27T08:56:41;24.50;63.50
47368;DHT22;34646;47.964;7.982;2022-08-27T09:02:49;24.50;63.40
47368;DHT22;34646;47.964;7.982;2022-08-27T09:08:51;24.50;63.30
47368;DHT22;34646;47.964;7.982;2022-08-27T09:15:04;24.50;62.90
47368;DHT22;34646;47.964;7.982;2022-08-27T09:21:39;24.50;62.90
47368;DHT22;34646;47.964;7.982;2022-08-27T09:27:44;24.50;63.10
47368;DHT22;34646;47.964;7.982;2022-08-27T09:33:46;24.50;63.00
47368;DHT22;34646;47.964;7.982;2022-08-27T09:46:20;24.50;63.10
47368;DHT22;34646;47.964;7.982;2022-08-27T09:52:34;24.50;63.40
47368;DHT22;34646;47.964;7.982;2022-08-27T10:17:14;24.50;63.40
47368;DHT22;34646;47.964;7.982;2022-08-27T10:29:48;24.50;63.20
47368;DHT22;34646;47.964;7.982;2022-08-27T10:36:05;24.50;63.20
47368;DHT22;34646;47.964;7.982;2022-08-27T10:48:13;24.50;63.10
47368;DHT22;34646;47.964;7.982;2022-08-27T10:54:41;24.50;63.10
47368;DHT22;34646;47.964;7.982;2022-08-27T11:07:07;24.50;63.10
47368;DHT22;34646;47.964;7.982;2022-08-27T11:19:41;24.50;63.10
47368;DHT22;34646;47.964;7.982;2022-08-27T11:25:58;24.50;63.10
47368;DHT22;34646;47.964;7.982;2022-08-27T11:38:36;24.50;63.10
47368;DHT22;34646;47.964;7.982;2022-08-27T11:44:45;24.60;63.20
47368;DHT22;34646;47.964;7.982;2022-08-27T11:51:40;24.60;63.30
47368;DHT22;34646;47.964;7.982;2022-08-27T11:57:36;24.60;63.40
47368;DHT22;34646;47.964;7.982;2022-08-27T12:03:38;24.50;64.00
47368;DHT22;34646;47.964;7.982;2022-08-27T12:16:33;24.50;63.40
47368;DHT22;34646;47.964;7.982;2022-08-27T12:35:36;24.50;63.20
47368;DHT22;34646;47.964;7.982;2022-08-27T12:41:45;24.50;63.20
47368;DHT22;34646;47.964;7.982;2022-08-27T12:47:47;24.50;63.30
47368;DHT22;34646;47.964;7.982;2022-08-27T12:54:36;24.50;63.40
47368;DHT22;34646;47.964;7.982;2022-08-27T13:06:56;24.50;63.50
47368;DHT22;34646;47.964;7.982;2022-08-27T13:13:07;24.50;63.40
47368;DHT22;34646;47.964;7.982;2022-08-27T13:19:20;24.50;63.50
47368;DHT22;34646;47.964;7.982;2022-08-27T13:25:30;24.50;63.60
47368;DHT22;34646;47.964;7.982;2022-08-27T13:31:33;24.40;63.50
47368;DHT22;34646;47.964;7.982;2022-08-27T13:37:40;24.40;63.50
47368;DHT22;34646;47.964;7.982;2022-08-27T13:43:43;24.40;63.40
47368;DHT22;34646;47.964;7.982;2022-08-27T13:49:45;24.40;63.40
47368;DHT22;34646;47.964;7.982;2022-08-27T13:55:47;24.40;63.40
47368;DHT22;34646;47.964;7.982;2022-08-27T14:08:14;24.40;63.40
47368;DHT22;34646;47.964;7.982;2022-08-27T14:14:17;24.40;63.30
47368;DHT22;34646;47.964;7.982;2022-08-27T14:20:19;24.40;63.40
47368;DHT22;34646;47.964;7.982;2022-08-27T14:26:20;24.40;63.30
47368;DHT22;34646;47.964;7.982;2022-08-27T14:32:21;24.40;63.30
47368;DHT22;34646;47.964;7.982;2022-08-27T14:38:22;24.40;63.40
47368;DHT22;34646;47.964;7.982;2022-08-27T14:44:23;24.40;63.30
47368;DHT22;34646;47.964;7.982;2022-08-27T14:50:24;24.30;63.20
47368;DHT22;34646;47.964;7.982;2022-08-27T14:56:24;24.30;63.20
47368;DHT22;34646;47.964;7.982;2022-08-27T15:02:25;24.30;63.10
47368;DHT22;34646;47.964;7.982;2022-08-27T15:08:26;24.40;63.10
47368;DHT22;34646;47.964;7.982;2022-08-27T15:14:32;24.30;63.10
47368;DHT22;34646;47.964;7.982;2022-08-27T15:20:34;24.40;63.20
47368;DHT22;34646;47.964;7.982;2022-08-27T15:26:35;24.30;63.10
47368;DHT22;34646;47.964;7.982;2022-08-27T15:32:40;24.30;63.10
47368;DHT22;34646;47.964;7.982;2022-08-27T15:38:41;24.30;63.20
47368;DHT22;34646;47.964;7.982;2022-08-27T15:44:48;24.30;63.10
47368;DHT22;34646;47.964;7.982;2022-08-27T15:50:50;24.30;63.20
47368;DHT22;34646;47.964;7.982;2022-08-27T15:56:52;24.30;63.20
47368;DHT22;34646;47.964;7.982;2022-08-27T16:02:53;24.30;63.30
47368;DHT22;34646;47.964;7.982;2022-08-27T16:08:54;24.30;63.20
47368;DHT22;34646;47.964;7.982;2022-08-27T16:14:55;24.30;63.30
47368;DHT22;34646;47.964;7.982;2022-08-27T16:20:56;24.30;63.40
47368;DHT22;34646;47.964;7.982;2022-08-27T16:26:57;24.30;63.30
47368;DHT22;34646;47.964;7.982;2022-08-27T16:32:58;24.40;63.40
47368;DHT22;34646;47.964;7.982;2022-08-27T16:38:59;24.50;64.20
47368;DHT22;34646;47.964;7.982;2022-08-27T16:44:59;24.50;63.60
47368;DHT22;34646;47.964;7.982;2022-08-27T16:51:03;24.60;63.70
47368;DHT22;34646;47.964;7.982;2022-08-27T16:57:04;24.70;63.90
47368;DHT22;34646;47.964;7.982;2022-08-27T17:03:06;24.70;63.80
47368;DHT22;34646;47.964;7.982;2022-08-27T17:09:07;24.70;63.70
47368;DHT22;34646;47.964;7.982;2022-08-27T17:15:08;24.80;63.60
47368;DHT22;34646;47.964;7.982;2022-08-27T17:21:10;24.80;63.60
47368;DHT22;34646;47.964;7.982;2022-08-27T17:27:11;24.70;63.70
47368;DHT22;34646;47.964;7.982;2022-08-27T17:33:35;24.70;64.30
47368;DHT22;34646;47.964;7.982;2022-08-27T17:39:37;24.70;63.50
47368;DHT22;34646;47.964;7.982;2022-08-27T17:45:37;24.70;63.60
47368;DHT22;34646;47.964;7.982;2022-08-27T17:51:38;24.60;63.50
47368;DHT22;34646;47.964;7.982;2022-08-27T17:57:39;24.60;63.50
47368;DHT22;34646;47.964;7.982;2022-08-27T18:03:40;24.60;63.50
47368;DHT22;34646;47.964;7.982;2022-08-27T18:09:41;24.60;63.50
47368;DHT22;34646;47.964;7.982;2022-08-27T18:15:42;24.60;63.50
47368;DHT22;34646;47.964;7.982;2022-08-27T18:21:42;24.50;63.40
47368;DHT22;34646;47.964;7.982;2022-08-27T18:27:44;24.50;63.40
47368;DHT22;34646;47.964;7.982;2022-08-27T18:33:47;24.50;63.30
47368;DHT22;34646;47.964;7.982;2022-08-27T18:39:48;24.50;63.30
47368;DHT22;34646;47.964;7.982;2022-08-27T18:45:49;24.50;63.30
47368;DHT22;34646;47.964;7.982;2022-08-27T18:51:50;24.50;63.30
47368;DHT22;34646;47.964;7.982;2022-08-27T18:57:50;24.40;63.20
47368;DHT22;34646;47.964;7.982;2022-08-27T19:03:53;24.40;63.20
47368;DHT22;34646;47.964;7.982;2022-08-27T19:09:54;24.40;63.20
47368;DHT22;34646;47.964;7.982;2022-08-27T19:16:04;24.40;63.20
47368;DHT22;34646;47.964;7.982;2022-08-27T19:22:06;24.40;63.20
47368;DHT22;34646;47.964;7.982;2022-08-27T19:28:06;24.40;63.80
47368;DHT22;34646;47.964;7.982;2022-08-27T19:34:07;24.40;63.20
47368;DHT22;34646;47.964;7.982;2022-08-27T19:40:09;24.40;63.20
47368;DHT22;34646;47.964;7.982;2022-08-27T19:46:11;24.40;63.20
47368;DHT22;34646;47.964;7.982;2022-08-27T19:52:12;24.30;63.20
47368;DHT22;34646;47.964;7.982;2022-08-27T19:58:15;24.30;63.80
47368;DHT22;34646;47.964;7.982;2022-08-27T20:04:17;24.30;63.20
47368;DHT22;34646;47.964;7.982;2022-08-27T20:10:21;24.30;63.30
47368;DHT22;34646;47.964;7.982;2022-08-27T20:16:22;24.30;63.20
47368;DHT22;34646;47.964;7.982;2022-08-27T20:22:23;24.30;63.20
47368;DHT22;34646;47.964;7.982;2022-08-27T20:28:24;24.30;63.20
47368;DHT22;34646;47.964;7.982;2022-08-27T20:34:25;24.30;63.20
47368;DHT22;34646;47.964;7.982;2022-08-27T20:40:27;24.20;63.10
47368;DHT22;34646;47.964;7.982;2022-08-27T20:46:29;24.20;63.20
47368;DHT22;34646;47.964;7.982;2022-08-27T20:52:30;24.20;63.20
47368;DHT22;34646;47.964;7.982;2022-08-27T20:58:31;24.20;63.20
47368;DHT22;34646;47.964;7.982;2022-08-27T21:04:51;24.20;63.20
47368;DHT22;34646;47.964;7.982;2022-08-27T21:10:54;24.20;63.20
47368;DHT22;34646;47.964;7.982;2022-08-27T21:16:56;24.20;63.20
47368;DHT22;34646;47.964;7.982;2022-08-27T21:22:58;24.20;63.30
47368;DHT22;34646;47.964;7.982;2022-08-27T21:28:59;24.20;63.30
47368;DHT22;34646;47.964;7.982;2022-08-27T21:34:59;24.20;63.30
47368;DHT22;34646;47.964;7.982;2022-08-27T21:41:01;24.20;63.30
47368;DHT22;34646;47.964;7.982;2022-08-27T21:47:02;24.10;63.30
47368;DHT22;34646;47.964;7.982;2022-08-27T21:53:03;24.10;63.30
47368;DHT22;34646;47.964;7.982;2022-08-27T21:59:03;24.10;63.30
47368;DHT22;34646;47.964;7.982;2022-08-27T22:05:06;24.10;63.40
47368;DHT22;34646;47.964;7.982;2022-08-27T22:11:09;24.10;63.40
47368;DHT22;34646;47.964;7.982;2022-08-27T22:17:10;24.10;63.40
47368;DHT22;34646;47.964;7.982;2022-08-27T22:23:15;24.10;63.40
47368;DHT22;34646;47.964;7.982;2022-08-27T22:29:15;24.10;63.30
47368;DHT22;34646;47.964;7.982;2022-08-27T22:35:17;24.10;63.40
47368;DHT22;34646;47.964;7.982;2022-08-27T22:41:18;24.10;63.40
47368;DHT22;34646;47.964;7.982;2022-08-27T22:47:19;24.10;63.40
47368;DHT22;34646;47.964;7.982;2022-08-27T22:53:20;24.10;63.40
47368;DHT22;34646;47.964;7.982;2022-08-27T22:59:21;24.10;63.40
47368;DHT22;34646;47.964;7.982;2022-08-27T23:05:22;24.00;63.40
47368;DHT22;34646;47.964;7.982;2022-08-27T23:11:23;24.00;63.40
47368;DHT22;34646;47.964;7.982;2022-08-27T23:17:24;24.00;63.40
47368;DHT22;34646;47.964;7.982;2022-08-27T23:23:25;24.00;63.40
47368;DHT22;34646;47.964;7.982;2022-08-27T23:29:26;24.00;63.40
47368;DHT22;34646;47.964;7.982;2022-08-27T23:35:27;24.00;63.50
47368;DHT22;34646;47.964;7.982;2022-08-27T23:41:28;24.00;63.60
47368;DHT22;34646;47.964;7.982;2022-08-27T23:47:29;24.00;63.60
47368;DHT22;34646;47.964;7.982;2022-08-27T23:53:30;24.00;63.60
47368;DHT22;34646;47.964;7.982;2022-08-27T23:59:31;23.90;63.70
